MYGF METAR and TAF weather

Enter ICAO airport designator
Station Type Date Time Source
MYGF METAR 2018/12/12 00:00 UTC NOAA

MYGF 120000Z 36011KT 9999 BKN025 17/11 A3021


Station Type Date Time Source
MYGF Decoded METAR 2018/12/12 00:00 UTC NOAA

Freeport, Grand Bahama, Bahamas, The (MYGF) 26-33N 078-42W 11M
Dec 11, 2018 - 07:00 PM EST / 2018.12.12 0000 UTC
Wind: from the N (360 degrees) at 13 MPH (11 KT):0
Visibility: greater than 7 mile(s):0
Sky conditions: mostly cloudy
Temperature: 62 F (17 C)
Dew Point: 51 F (11 C)
Relative Humidity: 67%
Pressure (altimeter): 30.21 in. Hg (1023 hPa)
ob: MYGF 120000Z 36011KT 9999 BKN025 17/11 A3021
cycle: 0

Station Type Date Time Source
MYGF TAF 2018/12/12 12:45 UTC NOAA

MYGF 121045Z 1212/1312 07012KT 9999 SCT030


Example: see airport list